CheckWX is a tool to help pilots better visualize weather data.  It is not intended as a substitute for an official pre-flight weather briefing.

04:05:37 UTC

EGLL TAF
London Heathrow Airport
London, United Kingdom
TAF EGLL 232255Z 2400/2506 06006KT 9999 SCT045 PROB40 2400/2408 8000 BECMG 2408/2411 15012KT PROB30 TEMPO 2410/2418 17015G25KT 7000 SHRA BKN014 BKN025CB BECMG 2412/2415 21012KT BECMG 2419/2422 14007KT TEMPO 2503/2506 4000 SHRA BKN012

Apr-24@
00:00 UTC

Apr-24 @ 00:00 UTC

Apr-24@
08:00 UTC

Apr-24 @ 08:00 UTC

TAF EGLL 232255Z 2400/2506 06006KT 9999 SCT045
Wind
  • 060° at 6 KTS
Cloud Levels
  • Scattered at 4,500' AGL

Apr-24@
00:00 UTC

Apr-24 @ 00:00 UTC

Apr-24@
08:00 UTC

Apr-24 @ 08:00 UTC

PROB40 2400/2408 8000

Probable - 40% Likelihood

Probable - 40% Likelihood during this time.

Apr-24@
08:00 UTC

Apr-24 @ 08:00 UTC

Apr-24@
12:00 UTC

Apr-24 @ 12:00 UTC

BECMG 2408/2411 15012KT

Becoming

Becoming Conditions expected by Wed, Apr 24, 2019 @ 11:00 UTC

Wind
  • 150° at 12 KTS
Cloud Levels
  • Scattered at 4,500' AGL

Apr-24@
10:00 UTC

Apr-24 @ 10:00 UTC

Apr-24@
18:00 UTC

Apr-24 @ 18:00 UTC

PROB30 TEMPO 2410/2418 17015G25KT 7000 SHRA BKN014 BKN025CB

Temporary - 30% Likelihood

Temporary - 30% Likelihood during this time.

Wind
  • 170° at 15 KTS
  • {Gusting to 25 KTS
Conditions
Rain
Cloud Levels
  • Broken at 1,400' AGL
  • Broken at 2,500' AGL

Apr-24@
12:00 UTC

Apr-24 @ 12:00 UTC

Apr-24@
19:00 UTC

Apr-24 @ 19:00 UTC

BECMG 2412/2415 21012KT

Becoming

Becoming Conditions expected by Wed, Apr 24, 2019 @ 15:00 UTC

Wind
  • 210° at 12 KTS
Cloud Levels
  • Scattered at 4,500' AGL

Apr-24@
19:00 UTC

Apr-24 @ 19:00 UTC

Apr-25@
06:00 UTC

Apr-25 @ 06:00 UTC

BECMG 2419/2422 14007KT

Becoming

Becoming Conditions expected by Wed, Apr 24, 2019 @ 22:00 UTC

Wind
  • 140° at 7 KTS
Cloud Levels
  • Scattered at 4,500' AGL

Apr-25@
03:00 UTC

Apr-25 @ 03:00 UTC

Apr-25@
06:00 UTC

Apr-25 @ 06:00 UTC

TEMPO 2503/2506 4000 SHRA BKN012

Temporary

Temporary Changes expected for less than half the time period

Conditions
Rain
Cloud Levels
  • Broken at 1,200' AGL